Azalea, OR

6:06 PM PDT on August 20, 2014 (GMT -0700)
wolf creek | Change Station
CLOSE
Current Station
Personal Weather Station
Location: Wolf Creek, OR
Elevation: 1503 ft
Nearby Weather Stations

Elev 1503 ft 42.71 °N, 123.37 °W | Updated 5 seconds ago

Partly Cloudy
Partly Cloudy
78.8 °F
Feels Like 79 °F
N
1.3
Wind Variable Wind from NNW
Gusts 5.6 mph

Today
High -- | Low -- °F
--% Chance of Precip.
Yesterday
High -- | Low -- °F
Precip. -- in
6:24 AM 8:06 PM
Waning Crescent, 18% visible
Pressure 29.91 in
Visibility 10.0 miles
Clouds Few 6000 ft
Heat Index 79 °F
Dew Point 50 °F
Humidity 37%
Rainfall 0.00 in
Snow Depth Not available.
UV 2 out of 12
Pollen 5.30 out of 12
Air Quality Not available.
Flu Activity Not available.
METAR KRBG 210053Z AUTO 36006KT 10SM FEW060 28/11 A2992 RMK AO2 SLP127 T02780111

More Conditions Fewer Conditions

Pressure 29.91 in
Visibility 10.0 miles
Clouds Few 6000 ft
Heat Index 79 °F
Dew Point 50 °F
Humidity 37%
Rainfall 0.00 in
Snow Depth Not available.
UV 2 out of 12
Pollen 5.30 out of 12
Air Quality Not available.
Flu Activity Not available.
METAR KRBG 210053Z AUTO 36006KT 10SM FEW060 28/11 A2992 RMK AO2 SLP127 T02780111

More Conditions Fewer Conditions

10-Day Weather Forecast

Almanac

Astronomy

Aug. 20, 2014 Rise Set
Actual Time 6:24 AM PDT 8:06 PM PDT
Civil Twilight 5:54 AM PDT 8:36 PM PDT
Nautical Twilight 5:18 AM PDT 9:13 PM PDT
Astronomical Twilight 4:38 AM PDT 9:52 PM PDT
Moon 2:06 AM PDT (8/20) 4:58 PM PDT (8/20)
Length of Visible Light 14h 42m
Length of Day
13h 42m
Tomorrow will be 2m 40s shorter.
Waning Crescent, 18% of the Moon is Illuminated
Today
Waning Crescent
Aug 25
New
Sep 2
First Quarter
Sep 8
Full
Sep 15
Last Quarter

Today's Extremes

State Highs State Lows

Community

WunderPhotos

Upload Photos

1,745,823 photos uploaded!

WunderBlogs® & News

Nearby

Snow Depth

Station Depth Elevation
Fish Lake 0 in 4665 ft
Sevenmile Marsh 0 in 6200 ft
Fourmile Lake 0 in 6000 ft
Diamond Lake 0 in 5315 ft
Holland Meadows 0 in 4900 ft

Earthquake Activity

City Distance Mag. Time & Date
No recent earthquake activity has been reported nearby.
Minimum magnitude displayed is 2.5.

Coastal Water Temperatures

Place Temperature
No Stations Reporting

Nearby Weather Stations